Vernon, Alabama
Current Conditions -  °F | °C
As of 4:58 PM on Saturday 25 Oct 2014 (Local Time) from KCBM Reporting Station
Clear Clear  
Wind Chill: 79°   Ceiling: Unl
Heat Index: 80°   Visibility: 10mi
Dew Point: 60°   Wind: 7mph
Humidity: 52%   Direction: 290°WNW
Pressure: 30.04"   Gusts: NA
Location:  33.76°N, 88.11°W
Report Text: KCBM 252158Z AUTO 29006KT 10SM CLR 26/16 A3004 RMK AO2 SLP175 T02620157 $
Loading
Personal Weather Stations






























Interactive Weather Map
Tropical Storm Tracking
New forecast layout! Learn more

10-Day Weather Forecast

Advertisements
Track Severe Weather on mobile